createdAt,value
2018-07-27T00:02:11.868Z,83.40
2018-07-27T00:04:39.910Z,82.30
2018-07-27T00:07:07.969Z,81.40
2018-07-27T00:09:36.001Z,82.40
2018-07-27T00:12:04.079Z,83.30
2018-07-27T00:14:32.124Z,82.50
2018-07-27T00:17:00.168Z,83.20
2018-07-27T00:19:28.210Z,84.40
2018-07-27T00:21:56.266Z,84.30
2018-07-27T00:24:24.312Z,83.40
2018-07-27T00:26:52.381Z,82.80
2018-07-27T00:29:20.425Z,81.10
2018-07-27T00:31:48.474Z,81.70
2018-07-27T00:34:16.512Z,82.20
2018-07-27T00:36:44.557Z,82.30
2018-07-27T00:39:12.606Z,83.20
2018-07-27T00:41:40.661Z,83.50
2018-07-27T00:44:08.696Z,82.60
2018-07-27T00:46:36.740Z,82.00
2018-07-27T00:49:04.900Z,82.20
2018-07-27T00:51:32.940Z,83.60
2018-07-27T00:54:00.981Z,84.10
2018-07-27T00:56:29.031Z,84.90
2018-07-27T00:58:57.076Z,85.10
2018-07-27T01:01:25.128Z,85.20
2018-07-27T01:03:53.215Z,84.30
2018-07-27T01:06:21.292Z,84.10
2018-07-27T01:08:49.388Z,83.80
2018-07-27T01:11:17.464Z,83.50
2018-07-27T01:13:45.588Z,84.50
2018-07-27T01:16:13.659Z,84.50
2018-07-27T01:18:41.744Z,83.80
2018-07-27T01:21:09.821Z,83.20
2018-07-27T01:26:05.792Z,82.80
2018-07-27T01:28:33.868Z,81.70
2018-07-27T01:31:01.948Z,81.50
2018-07-27T01:33:30.029Z,81.90
2018-07-27T01:35:58.113Z,82.30
2018-07-27T01:38:26.184Z,81.60
2018-07-27T01:40:54.268Z,80.90
2018-07-27T01:43:22.347Z,81.40
2018-07-27T01:45:50.420Z,81.20
2018-07-27T01:48:18.504Z,81.50
2018-07-27T01:50:46.580Z,81.80
2018-07-27T01:53:14.691Z,83.70
2018-07-27T01:55:42.778Z,84.50
2018-07-27T01:58:10.870Z,84.20
2018-07-27T02:00:38.940Z,84.10
2018-07-27T02:03:07.020Z,84.30
2018-07-27T02:05:35.089Z,83.40
2018-07-27T02:08:03.172Z,82.60
2018-07-27T02:10:31.235Z,79.50
2018-07-27T02:12:59.325Z,79.50
2018-07-27T02:15:27.392Z,77.50
2018-07-27T02:17:55.485Z,77.80
2018-07-27T02:20:23.569Z,77.70
2018-07-27T02:22:51.854Z,75.50
2018-07-27T02:25:19.900Z,76.00
2018-07-27T02:27:47.939Z,76.60
2018-07-27T02:30:16.012Z,76.00
2018-07-27T02:32:44.076Z,76.60
2018-07-27T02:35:12.122Z,76.90
2018-07-27T02:37:40.172Z,78.10
2018-07-27T02:40:08.242Z,78.50
2018-07-27T02:42:36.253Z,80.00
2018-07-27T02:45:04.932Z,80.60
2018-07-27T02:47:32.961Z,80.40
2018-07-27T02:50:01.017Z,80.00
2018-07-27T02:52:29.059Z,79.40
2018-07-27T02:54:57.101Z,79.30
2018-07-27T02:57:25.153Z,78.90
2018-07-27T02:59:53.195Z,78.70
2018-07-27T03:02:21.249Z,78.90
2018-07-27T03:04:49.296Z,79.30
2018-07-27T03:07:17.352Z,79.90
2018-07-27T03:12:13.245Z,81.00
2018-07-27T03:14:41.292Z,81.60
2018-07-27T03:17:09.329Z,82.70
2018-07-27T03:19:37.378Z,82.60
2018-07-27T03:22:05.446Z,82.90
2018-07-27T03:24:33.484Z,83.50
2018-07-27T03:27:01.533Z,85.70
2018-07-27T03:29:29.575Z,86.70
2018-07-27T03:31:57.640Z,87.30
2018-07-27T03:34:25.677Z,88.90
2018-07-27T03:36:53.725Z,88.10
2018-07-27T03:39:21.772Z,87.70
2018-07-27T03:41:49.808Z,87.90
2018-07-27T03:44:17.848Z,88.20
2018-07-27T03:46:45.881Z,88.90
2018-07-27T03:49:13.928Z,90.40
2018-07-27T03:51:41.970Z,88.80
2018-07-27T03:54:10.017Z,89.70
2018-07-27T03:56:38.057Z,89.70
2018-07-27T03:59:06.105Z,89.90
2018-07-27T04:01:34.147Z,89.10
2018-07-27T04:04:02.198Z,90.00
2018-07-27T04:06:30.234Z,89.20
2018-07-27T04:08:58.276Z,89.60
2018-07-27T04:11:26.336Z,90.00
2018-07-27T04:13:54.389Z,90.40
2018-07-27T04:16:22.420Z,90.40
2018-07-27T04:18:50.467Z,90.50
2018-07-27T04:21:18.557Z,90.70
2018-07-27T04:23:46.604Z,90.70
2018-07-27T04:26:14.651Z,90.80
2018-07-27T04:31:10.530Z,91.00
2018-07-27T04:33:38.589Z,91.40
2018-07-27T04:36:06.634Z,91.40
2018-07-27T04:38:34.677Z,91.30
2018-07-27T04:41:02.711Z,91.00
2018-07-27T04:43:30.760Z,90.80
2018-07-27T04:45:58.804Z,91.10
2018-07-27T04:48:26.852Z,91.30
2018-07-27T04:50:55.427Z,91.50
2018-07-27T04:53:23.488Z,91.60
2018-07-27T04:55:51.537Z,91.80
2018-07-27T04:58:19.580Z,91.70
2018-07-27T05:00:47.627Z,91.90
2018-07-27T05:03:15.677Z,92.10
2018-07-27T05:05:43.730Z,92.10
2018-07-27T05:08:11.772Z,92.20
2018-07-27T05:10:49.624Z,92.30
2018-07-27T05:13:18.641Z,92.30
2018-07-27T05:15:47.840Z,91.80
2018-07-27T05:18:16.721Z,91.90
2018-07-27T05:20:44.828Z,91.50
2018-07-27T05:23:13.030Z,91.40
2018-07-27T05:25:41.100Z,91.40
2018-07-27T05:28:09.600Z,92.00
2018-07-27T05:30:37.692Z,91.90
2018-07-27T05:33:06.080Z,91.60
2018-07-27T05:35:34.180Z,91.70
2018-07-27T05:38:02.240Z,91.10
2018-07-27T05:40:30.313Z,90.50
2018-07-27T05:42:58.384Z,90.20
2018-07-27T05:45:26.439Z,90.60
2018-07-27T05:47:54.500Z,90.00
2018-07-27T05:50:22.576Z,89.50
2018-07-27T05:52:50.752Z,89.10
2018-07-27T05:55:18.776Z,88.40
2018-07-27T05:57:46.837Z,87.60
2018-07-27T06:00:14.908Z,88.10
2018-07-27T06:02:43.004Z,86.70
2018-07-27T06:05:11.049Z,88.00
2018-07-27T06:07:39.100Z,86.20
2018-07-27T06:10:07.660Z,85.70
2018-07-27T06:12:35.941Z,87.30
2018-07-27T06:15:04.766Z,86.50
2018-07-27T06:17:32.833Z,84.80
2018-07-27T06:20:00.908Z,85.60
2018-07-27T06:22:28.948Z,82.60
2018-07-27T06:24:57.006Z,82.20
2018-07-27T06:27:25.056Z,78.40
2018-07-27T06:29:53.134Z,77.00
2018-07-27T06:32:21.164Z,74.10
2018-07-27T06:34:49.222Z,69.40
2018-07-27T06:37:17.256Z,66.00
2018-07-27T06:39:46.212Z,62.30
2018-07-27T06:42:14.701Z,59.70
2018-07-27T06:44:42.765Z,57.50
2018-07-27T06:47:10.831Z,55.80
2018-07-27T06:49:38.890Z,54.40
2018-07-27T06:52:06.929Z,51.60
2018-07-27T06:54:34.980Z,51.10
2018-07-27T06:57:03.027Z,48.00
2018-07-27T06:59:31.080Z,47.80
2018-07-27T07:01:59.127Z,47.90
2018-07-27T07:04:27.181Z,47.30
2018-07-27T07:06:55.225Z,46.30
2018-07-27T07:09:23.269Z,44.70
2018-07-27T07:11:51.318Z,44.30
2018-07-27T07:14:19.369Z,44.20
2018-07-27T07:16:47.412Z,45.60
2018-07-27T07:19:15.480Z,43.90
2018-07-27T07:21:43.608Z,44.60
2018-07-27T07:24:11.657Z,45.40
2018-07-27T07:26:39.705Z,46.00
2018-07-27T07:29:07.769Z,47.20
2018-07-27T07:31:35.808Z,46.70
2018-07-27T07:34:03.864Z,47.90
2018-07-27T07:36:31.908Z,48.40
2018-07-27T07:38:59.961Z,49.90
2018-07-27T07:41:27.996Z,49.00
2018-07-27T07:43:56.042Z,48.20
2018-07-27T07:46:24.094Z,50.10
2018-07-27T07:48:52.145Z,49.00
2018-07-27T07:51:20.185Z,48.80
2018-07-27T07:53:48.223Z,48.10
2018-07-27T07:56:16.290Z,49.40
2018-07-27T07:58:44.393Z,50.40
2018-07-27T08:01:12.395Z,50.30
2018-07-27T08:03:40.432Z,49.40
2018-07-27T08:06:08.473Z,50.00
2018-07-27T08:08:36.515Z,50.70
2018-07-27T08:11:04.561Z,50.90
2018-07-27T08:13:32.592Z,50.70
2018-07-27T08:16:00.664Z,51.20
2018-07-27T08:18:28.692Z,51.70
2018-07-27T08:20:56.748Z,50.70
2018-07-27T08:23:24.832Z,50.40
2018-07-27T08:27:00.439Z,49.90
2018-07-27T08:29:32.724Z,49.60
2018-07-27T08:32:01.248Z,49.50
2018-07-27T08:34:29.343Z,49.30
2018-07-27T08:36:57.425Z,48.10
2018-07-27T08:39:26.684Z,48.50
2018-07-27T08:41:54.753Z,48.70
2018-07-27T08:44:26.847Z,48.80
2018-07-27T08:46:54.924Z,47.70
2018-07-27T08:49:23.011Z,49.00
2018-07-27T08:51:51.053Z,48.60
2018-07-27T08:54:19.124Z,48.00
2018-07-27T08:56:47.180Z,48.50
2018-07-27T08:59:15.237Z,47.80
2018-07-27T09:01:43.339Z,46.40
2018-07-27T09:04:11.389Z,47.70
2018-07-27T09:06:39.440Z,47.50
2018-07-27T09:09:08.789Z,47.40
2018-07-27T09:11:36.929Z,47.60
2018-07-27T09:14:04.984Z,46.80
2018-07-27T09:16:33.076Z,45.90
2018-07-27T09:21:35.856Z,46.00
2018-07-27T09:24:03.970Z,45.90
2018-07-27T09:26:32.020Z,44.40
2018-07-27T09:29:00.069Z,45.70
2018-07-27T09:31:28.118Z,45.50
2018-07-27T09:33:56.200Z,45.20
2018-07-27T09:36:24.260Z,45.60
2018-07-27T09:38:52.296Z,44.20
2018-07-27T09:41:20.340Z,44.40
2018-07-27T09:43:48.437Z,42.10
2018-07-27T09:46:16.484Z,44.00
2018-07-27T09:48:49.969Z,45.00
2018-07-27T09:51:18.188Z,44.40
2018-07-27T09:53:46.274Z,43.40
2018-07-27T09:56:14.288Z,44.20
2018-07-27T09:58:42.359Z,42.70
2018-07-27T10:01:15.887Z,44.40
2018-07-27T10:03:43.937Z,42.90
2018-07-27T10:06:12.045Z,43.50
2018-07-27T10:08:40.123Z,42.30
2018-07-27T10:11:08.184Z,44.10
2018-07-27T10:13:36.275Z,43.90
2018-07-27T10:16:04.656Z,44.90
2018-07-27T10:18:32.823Z,45.50
2018-07-27T10:21:00.801Z,44.40
2018-07-27T10:23:28.839Z,42.60
2018-07-27T10:25:56.924Z,42.90
2018-07-27T10:28:24.969Z,43.70
2018-07-27T10:30:53.016Z,42.80
2018-07-27T10:33:21.060Z,44.40
2018-07-27T10:35:49.142Z,44.30
2018-07-27T10:38:17.380Z,42.80
2018-07-27T10:40:45.569Z,44.10
2018-07-27T10:43:13.616Z,44.20
2018-07-27T10:45:41.688Z,43.90
2018-07-27T10:48:09.731Z,42.80
2018-07-27T10:50:37.832Z,41.30
2018-07-27T10:53:05.920Z,44.00
2018-07-27T10:55:33.977Z,43.90
2018-07-27T10:58:02.029Z,43.60
2018-07-27T11:00:30.072Z,43.00
2018-07-27T11:02:58.205Z,39.70
2018-07-27T11:05:26.260Z,42.30
2018-07-27T11:07:54.348Z,42.50
2018-07-27T11:10:22.443Z,42.00
2018-07-27T11:12:50.508Z,41.50
2018-07-27T11:15:18.544Z,41.80
2018-07-27T11:17:46.603Z,40.80
2018-07-27T11:20:14.637Z,40.00
2018-07-27T11:25:23.836Z,39.00
2018-07-27T11:27:51.908Z,37.60
2018-07-27T11:30:19.972Z,38.40
2018-07-27T11:32:48.083Z,36.40
2018-07-27T11:35:16.147Z,37.10
2018-07-27T11:37:44.223Z,40.20
2018-07-27T11:40:12.296Z,37.50
2018-07-27T11:42:40.377Z,38.80
2018-07-27T11:45:08.454Z,37.60
2018-07-27T11:47:36.550Z,37.00
2018-07-27T11:50:04.752Z,37.50
2018-07-27T11:52:32.820Z,37.50
2018-07-27T11:55:00.968Z,35.20
2018-07-27T11:57:29.038Z,37.60
2018-07-27T11:59:57.084Z,37.30
2018-07-27T12:02:25.156Z,36.50
2018-07-27T12:04:53.215Z,37.30
2018-07-27T12:07:21.288Z,37.40
2018-07-27T12:09:49.360Z,37.90
2018-07-27T12:12:17.429Z,38.80
2018-07-27T12:14:45.658Z,38.60
2018-07-27T12:17:13.564Z,39.80
2018-07-27T12:19:41.655Z,39.50
2018-07-27T12:22:09.732Z,40.10
2018-07-27T12:24:37.805Z,38.30
2018-07-27T12:27:05.907Z,38.80
2018-07-27T12:29:33.952Z,38.50
2018-07-27T12:32:02.018Z,38.20
2018-07-27T12:34:30.072Z,39.50
2018-07-27T12:36:58.137Z,38.30
2018-07-27T12:39:26.196Z,38.00
2018-07-27T12:41:54.260Z,38.70
2018-07-27T12:44:22.331Z,38.20
2018-07-27T12:46:50.408Z,40.10
2018-07-27T12:49:18.476Z,40.90
2018-07-27T12:51:46.544Z,40.70
2018-07-27T12:54:14.615Z,41.00
2018-07-27T12:56:42.692Z,40.20
2018-07-27T12:59:10.751Z,40.00
2018-07-27T13:01:38.819Z,39.10
2018-07-27T13:04:06.872Z,39.20
2018-07-27T13:06:35.172Z,36.10
2018-07-27T13:09:04.180Z,35.70
2018-07-27T13:11:32.253Z,34.20
2018-07-27T13:14:00.316Z,35.70
2018-07-27T13:16:28.389Z,35.50
2018-07-27T13:18:56.452Z,35.80
2018-07-27T13:21:24.519Z,35.40
2018-07-27T13:23:58.100Z,36.60
2018-07-27T13:26:26.152Z,36.30
2018-07-27T13:28:54.193Z,37.20
2018-07-27T13:34:35.014Z,38.30
2018-07-27T13:37:03.199Z,37.50
2018-07-27T13:39:31.609Z,38.10
2018-07-27T13:42:00.779Z,38.80
2018-07-27T13:44:29.372Z,37.90
2018-07-27T13:46:57.428Z,38.10
2018-07-27T13:49:25.990Z,39.10
2018-07-27T13:51:54.244Z,38.30
2018-07-27T13:54:22.357Z,39.50
2018-07-27T13:56:50.360Z,39.00
2018-07-27T13:59:19.120Z,35.70
2018-07-27T14:01:48.318Z,37.60
2018-07-27T14:04:16.465Z,37.00
2018-07-27T14:06:46.225Z,35.40
2018-07-27T14:09:14.276Z,37.50
2018-07-27T14:11:42.524Z,35.40
2018-07-27T14:14:10.801Z,34.50
2018-07-27T14:16:39.182Z,36.60
2018-07-27T14:19:07.233Z,36.50
2018-07-27T14:21:35.432Z,37.40
2018-07-27T14:24:03.460Z,38.20
2018-07-27T14:26:31.553Z,39.70
2018-07-27T14:28:59.585Z,32.90
2018-07-27T14:31:27.640Z,34.00
2018-07-27T14:33:55.696Z,35.70
2018-07-27T14:36:23.972Z,37.70
2018-07-27T14:38:52.041Z,34.10
2018-07-27T14:41:21.048Z,34.60
2018-07-27T14:43:49.270Z,34.50
2018-07-27T14:46:17.285Z,37.10
2018-07-27T14:48:45.344Z,34.20
2018-07-27T14:51:13.401Z,37.40
2018-07-27T14:53:41.503Z,37.50
2018-07-27T14:56:09.544Z,36.70
2018-07-27T14:58:37.714Z,37.10
2018-07-27T15:01:05.719Z,39.90
2018-07-27T15:03:33.803Z,39.80
2018-07-27T15:06:01.876Z,40.20
2018-07-27T15:08:29.948Z,38.00
2018-07-27T15:10:57.993Z,39.60
2018-07-27T15:13:26.068Z,39.10
2018-07-27T15:15:54.109Z,40.50
2018-07-27T15:18:22.309Z,39.90
2018-07-27T15:20:50.373Z,39.70
2018-07-27T15:23:18.460Z,38.80
2018-07-27T15:25:46.512Z,41.50
2018-07-27T15:28:14.612Z,38.50
2018-07-27T15:30:42.655Z,40.50
2018-07-27T15:33:10.727Z,41.70
2018-07-27T15:35:38.832Z,39.20
2018-07-27T15:38:06.916Z,37.10
2018-07-27T15:40:34.956Z,39.20
2018-07-27T15:43:03.013Z,42.20
2018-07-27T15:45:31.065Z,40.60
2018-07-27T15:47:59.133Z,41.70
2018-07-27T15:50:27.216Z,41.50
2018-07-27T15:52:55.274Z,41.20
2018-07-27T15:55:23.329Z,42.30
2018-07-27T15:57:51.460Z,44.30
2018-07-27T16:00:19.508Z,42.70
2018-07-27T16:02:47.797Z,41.80
2018-07-27T16:07:46.279Z,40.10
2018-07-27T16:10:14.601Z,39.20
2018-07-27T16:12:42.687Z,40.20
2018-07-27T16:15:10.748Z,41.30
2018-07-27T16:17:38.793Z,41.00
2018-07-27T16:20:06.839Z,39.30
2018-07-27T16:22:34.913Z,42.00
2018-07-27T16:25:02.999Z,41.00
2018-07-27T16:27:31.080Z,41.30
2018-07-27T16:29:59.152Z,39.90
2018-07-27T16:32:27.236Z,38.00
2018-07-27T16:34:55.320Z,38.70
2018-07-27T16:37:23.403Z,38.10
2018-07-27T16:39:51.707Z,38.10
2018-07-27T16:42:19.832Z,37.70
2018-07-27T16:44:47.935Z,38.90
2018-07-27T16:47:16.029Z,38.30
2018-07-27T16:49:44.133Z,41.30
2018-07-27T16:52:12.220Z,42.60
2018-07-27T16:54:40.356Z,40.90
2018-07-27T16:57:08.445Z,40.10
2018-07-27T16:59:36.575Z,41.10
2018-07-27T17:02:04.649Z,41.30
2018-07-27T17:04:32.724Z,41.70
2018-07-27T17:07:00.812Z,41.50
2018-07-27T17:09:28.896Z,40.70
2018-07-27T17:11:57.055Z,40.10
2018-07-27T17:14:25.081Z,40.40
2018-07-27T17:16:53.156Z,42.70
2018-07-27T17:19:21.240Z,42.60
2018-07-27T17:21:49.320Z,41.10
2018-07-27T17:24:17.381Z,40.20
2018-07-27T17:26:45.456Z,42.10
2018-07-27T17:29:13.528Z,43.50
2018-07-27T17:31:41.557Z,44.90
2018-07-27T17:34:09.603Z,44.60
2018-07-27T17:36:37.661Z,44.40
2018-07-27T17:39:08.439Z,44.00
2018-07-27T17:41:36.520Z,45.00
2018-07-27T17:44:04.590Z,44.80
2018-07-27T17:46:32.636Z,41.90
2018-07-27T17:49:00.688Z,41.90
2018-07-27T17:51:28.737Z,42.10
2018-07-27T17:53:56.792Z,41.50
2018-07-27T17:56:24.862Z,43.00
2018-07-27T17:58:53.139Z,43.20
2018-07-27T18:01:21.444Z,44.60
2018-07-27T18:03:49.485Z,45.80
2018-07-27T18:06:17.536Z,43.50
2018-07-27T18:08:45.578Z,44.50
2018-07-27T18:11:13.628Z,45.90
2018-07-27T18:13:41.667Z,46.60
2018-07-27T18:16:09.948Z,50.20
2018-07-27T18:18:37.988Z,50.50
2018-07-27T18:21:06.103Z,51.30
2018-07-27T18:23:34.223Z,51.40
2018-07-27T18:26:02.237Z,54.90
2018-07-27T18:28:30.300Z,56.60
2018-07-27T18:30:58.377Z,58.80
2018-07-27T18:33:26.440Z,58.70
2018-07-27T18:35:54.515Z,58.80
2018-07-27T18:38:22.721Z,58.70
2018-07-27T18:40:50.785Z,59.30
2018-07-27T18:43:18.844Z,60.60
2018-07-27T18:45:46.908Z,60.20
2018-07-27T18:48:14.969Z,59.80
2018-07-27T18:50:43.032Z,61.00
2018-07-27T18:53:11.163Z,61.60
2018-07-27T18:55:39.251Z,63.60
2018-07-27T18:58:08.265Z,64.20
2018-07-27T19:00:36.623Z,65.10
2018-07-27T19:03:04.723Z,63.70
2018-07-27T19:05:32.799Z,63.70
2018-07-27T19:08:00.866Z,67.30
2018-07-27T19:10:28.938Z,68.10
2018-07-27T19:12:57.008Z,64.60
2018-07-27T19:15:25.091Z,65.80
2018-07-27T19:17:53.152Z,65.50
2018-07-27T19:20:21.224Z,65.00
2018-07-27T19:25:17.140Z,65.00
2018-07-27T19:27:45.187Z,65.60
2018-07-27T19:30:13.253Z,66.50
2018-07-27T19:32:41.320Z,67.70
2018-07-27T19:35:09.386Z,68.60
2018-07-27T19:37:37.458Z,68.70
2018-07-27T19:40:05.541Z,68.80
2018-07-27T19:42:33.568Z,68.10
2018-07-27T19:45:01.799Z,67.90
2018-07-27T19:47:29.894Z,68.40
2018-07-27T19:49:57.956Z,66.40
2018-07-27T19:52:26.004Z,64.30
2018-07-27T19:54:54.980Z,67.30
2018-07-27T19:57:23.068Z,69.10
2018-07-27T19:59:51.192Z,70.30
2018-07-27T20:02:19.284Z,70.90
2018-07-27T20:04:47.292Z,67.70
2018-07-27T20:07:15.491Z,66.30
2018-07-27T20:09:43.513Z,65.00
2018-07-27T20:12:11.559Z,65.70
2018-07-27T20:14:39.628Z,65.70
2018-07-27T20:17:07.680Z,67.40
2018-07-27T20:19:35.738Z,67.50
2018-07-27T20:22:03.824Z,67.80
2018-07-27T20:24:31.885Z,68.50
2018-07-27T20:26:59.957Z,68.20
2018-07-27T20:29:28.025Z,67.30
2018-07-27T20:34:24.029Z,65.90
2018-07-27T20:36:52.104Z,65.20
2018-07-27T20:39:20.170Z,65.00
2018-07-27T20:41:48.283Z,64.70
2018-07-27T20:44:16.350Z,65.20
2018-07-27T20:46:44.437Z,65.60
2018-07-27T20:49:12.524Z,66.10
2018-07-27T20:51:40.714Z,67.20
2018-07-27T20:54:09.414Z,67.50
2018-07-27T20:56:37.609Z,68.90
2018-07-27T20:59:06.208Z,70.30
2018-07-27T21:01:34.360Z,71.00
2018-07-27T21:04:02.490Z,70.60
2018-07-27T21:06:30.523Z,72.00
2018-07-27T21:08:58.594Z,71.90
2018-07-27T21:11:26.668Z,72.20
2018-07-27T21:13:54.740Z,72.60
2018-07-27T21:16:22.868Z,73.30
2018-07-27T21:18:50.928Z,73.90
2018-07-27T21:21:19.040Z,75.00
2018-07-27T21:23:47.125Z,75.00
2018-07-27T21:26:15.196Z,75.40
2018-07-27T21:28:43.277Z,73.80
2018-07-27T21:31:11.409Z,75.10
2018-07-27T21:33:39.408Z,74.30
2018-07-27T21:36:07.478Z,75.80
2018-07-27T21:38:35.548Z,76.30
2018-07-27T21:41:03.651Z,76.50
2018-07-27T21:43:31.720Z,75.60
2018-07-27T21:45:59.843Z,74.10
2018-07-27T21:48:27.896Z,71.80
2018-07-27T21:50:55.977Z,71.30
2018-07-27T21:53:24.065Z,71.30
2018-07-27T21:55:52.132Z,71.10
2018-07-27T21:58:20.189Z,71.40
2018-07-27T22:00:48.306Z,71.20
2018-07-27T22:03:16.365Z,71.30
2018-07-27T22:05:51.080Z,71.30
2018-07-27T22:08:19.141Z,71.20
2018-07-27T22:10:47.303Z,73.10
2018-07-27T22:13:15.389Z,75.90
2018-07-27T22:15:43.432Z,79.30
2018-07-27T22:18:11.500Z,80.70
2018-07-27T22:20:39.569Z,81.90
2018-07-27T22:23:07.644Z,81.90
2018-07-27T22:25:35.704Z,81.80
2018-07-27T22:28:03.774Z,81.20
2018-07-27T22:31:35.025Z,81.80
2018-07-27T22:34:03.100Z,82.10
2018-07-27T22:36:31.172Z,82.60
2018-07-27T22:38:59.243Z,82.10
2018-07-27T22:41:27.329Z,82.50
2018-07-27T22:43:55.381Z,82.70
2018-07-27T22:46:23.443Z,84.10
2018-07-27T22:48:51.508Z,86.30
2018-07-27T22:51:19.572Z,85.30
2018-07-27T22:53:47.644Z,84.20
2018-07-27T22:56:15.716Z,84.80
2018-07-27T22:58:43.776Z,86.10
2018-07-27T23:01:11.848Z,87.30
2018-07-27T23:03:39.922Z,88.40
2018-07-27T23:06:07.984Z,88.70
2018-07-27T23:08:36.063Z,89.10
2018-07-27T23:11:04.113Z,89.30
2018-07-27T23:13:32.184Z,89.20
2018-07-27T23:16:00.249Z,87.30
2018-07-27T23:18:28.307Z,86.90
2018-07-27T23:20:56.385Z,87.30
2018-07-27T23:23:24.448Z,87.20
2018-07-27T23:25:52.504Z,87.90
2018-07-27T23:28:20.560Z,88.30
2018-07-27T23:30:48.624Z,90.10
2018-07-27T23:33:16.696Z,89.90
2018-07-27T23:35:44.720Z,89.10
2018-07-27T23:38:12.764Z,88.90
2018-07-27T23:40:40.817Z,90.20
2018-07-27T23:43:08.868Z,90.10
2018-07-27T23:45:36.912Z,90.70
2018-07-27T23:48:04.973Z,91.10
2018-07-27T23:50:32.999Z,91.30
2018-07-27T23:53:01.050Z,91.10
2018-07-27T23:55:29.100Z,91.20
2018-07-27T23:57:57.342Z,91.70
